Time;durP1;ratioP1;P1;durP2;ratioP2;P2;SDS_P1;SDS_P2;PMS_P1;PMS_P2;Temp;Humidity;BMP_temperature;BMP_pressure;BME280_temperature;BME280_humidity;BME280_pressure;Samples;Min_cycle;Max_cycle;Signal;HPM_P1;HPM_P2
2022/11/11 00:02:21;;;;;;;5.87;3.37;;;12.90;99.90;;;;;;4992431;28;20427;-75
2022/11/11 00:05:11;;;;;;;5.23;3.27;;;12.90;99.90;;;;;;4978383;28;20469;-75
2022/11/11 00:07:59;;;;;;;8.47;3.67;;;12.90;99.90;;;;;;4986845;28;20470;-75
2022/11/11 00:10:44;;;;;;;6.70;3.40;;;12.90;99.90;;;;;;4994714;28;20405;-76
2022/11/11 00:13:32;;;;;;;5.00;3.63;;;12.90;99.90;;;;;;4985630;28;20429;-75
2022/11/11 00:16:20;;;;;;;5.83;3.40;;;12.90;99.90;;;;;;5001862;28;20979;-75
2022/11/11 00:25:24;;;;;;;5.03;3.13;;;12.90;99.90;;;;;;5005485;28;20499;-75
2022/11/11 00:28:11;;;;;;;7.83;3.80;;;12.80;99.90;;;;;;5013552;28;20437;-75
2022/11/11 00:31:08;;;;;;;6.57;3.10;;;12.80;99.90;;;;;;4981413;28;20427;-75
2022/11/11 00:33:54;;;;;;;6.80;4.03;;;12.80;99.90;;;;;;4994094;28;20439;-74
2022/11/11 00:36:41;;;;;;;9.43;3.87;;;12.80;99.90;;;;;;5006446;28;20424;-75
2022/11/11 00:39:28;;;;;;;4.97;3.70;;;12.80;99.90;;;;;;4991086;28;20445;-75
2022/11/11 00:42:15;;;;;;;6.10;3.60;;;12.80;99.90;;;;;;4988349;28;20462;-75
2022/11/11 00:45:02;;;;;;;8.27;3.90;;;12.80;99.90;;;;;;4996074;28;20962;-74
2022/11/11 00:51:04;;;;;;;9.30;3.70;;;12.80;99.90;;;;;;4974432;28;20394;-76
2022/11/11 00:53:51;;;;;;;9.50;4.00;;;12.80;99.90;;;;;;4985391;28;20446;-76
2022/11/11 00:56:38;;;;;;;5.57;3.90;;;12.80;99.90;;;;;;5060001;23;20495;-73
2022/11/11 00:59:23;;;;;;;4.53;3.43;;;12.80;99.90;;;;;;5016699;28;20445;-74
2022/11/11 01:02:07;;;;;;;4.80;3.57;;;12.80;99.90;;;;;;4999311;28;20428;-74
2022/11/11 01:04:54;;;;;;;5.33;4.00;;;12.70;99.90;;;;;;5016682;28;20476;-74
2022/11/11 01:07:41;;;;;;;6.50;3.83;;;12.70;99.90;;;;;;5016835;28;20415;-74
2022/11/11 01:10:37;;;;;;;7.07;3.97;;;12.70;99.90;;;;;;4999142;28;20440;-74
2022/11/11 01:13:34;;;;;;;5.43;3.53;;;12.70;99.90;;;;;;4999182;28;20431;-73
2022/11/11 01:16:24;;;;;;;8.13;3.80;;;12.70;99.90;;;;;;5016737;28;20410;-74
2022/11/11 01:19:12;;;;;;;5.50;3.30;;;12.70;99.90;;;;;;5016222;28;20454;-73
2022/11/11 01:21:57;;;;;;;5.50;3.80;;;12.70;99.90;;;;;;5021908;28;20416;-73
2022/11/11 01:24:44;;;;;;;4.13;3.40;;;12.70;99.90;;;;;;5018410;28;20499;-73
2022/11/11 01:27:29;;;;;;;5.63;3.67;;;12.70;99.90;;;;;;5020968;28;20408;-73
2022/11/11 01:30:13;;;;;;;7.63;4.40;;;12.70;99.90;;;;;;5020972;28;20447;-73
2022/11/11 01:33:03;;;;;;;4.63;3.77;;;12.70;99.90;;;;;;5017842;28;20803;-73
2022/11/11 01:35:50;;;;;;;4.37;3.97;;;12.70;99.90;;;;;;5020825;28;20455;-73
2022/11/11 01:38:35;;;;;;;7.13;4.03;;;12.60;99.90;;;;;;5035958;28;20496;-73
2022/11/11 01:41:32;;;;;;;6.20;3.80;;;12.60;99.90;;;;;;5017537;28;20513;-74
2022/11/11 01:44:42;;;;;;;6.10;3.43;;;12.60;99.90;;;;;;5035555;28;20429;-72
2022/11/11 01:49:17;;;;;;;5.53;3.80;;;12.60;99.90;;;;;;5035672;28;20402;-73
2022/11/11 01:50:31;;;;;;;4.17;3.37;;;12.60;99.90;;;;;;5035246;28;20936;-72
2022/11/11 01:53:20;;;;;;;5.20;4.07;;;12.60;99.90;;;;;;5018069;28;20421;-72
2022/11/11 01:56:09;;;;;;;8.83;3.93;;;12.60;99.90;;;;;;5035311;28;20546;-72
2022/11/11 01:59:02;;;;;;;6.20;3.93;;;12.60;99.90;;;;;;5017813;28;20479;-72
2022/11/11 02:01:49;;;;;;;8.50;4.27;;;12.60;99.90;;;;;;5035481;28;20488;-72
2022/11/11 02:07:40;;;;;;;6.27;3.93;;;12.60;99.90;;;;;;4995859;28;20412;-72
2022/11/11 02:10:28;;;;;;;4.60;3.70;;;12.60;99.90;;;;;;4995819;28;20447;-73
2022/11/11 02:16:18;;;;;;;4.70;3.67;;;12.60;99.90;;;;;;4978427;28;20984;-72
2022/11/11 02:19:02;;;;;;;6.63;3.90;;;12.60;99.90;;;;;;4995605;28;20463;-72
2022/11/11 02:21:55;;;;;;;5.07;3.30;;;12.50;99.90;;;;;;4995421;28;20468;-73
2022/11/11 02:24:43;;;;;;;4.70;3.33;;;12.50;99.90;;;;;;4964438;28;20557;-73
2022/11/11 02:27:34;;;;;;;4.33;3.80;;;12.50;99.90;;;;;;4995677;28;20408;-73
2022/11/11 02:30:20;;;;;;;4.47;3.53;;;12.60;99.90;;;;;;4995319;28;20441;-72
2022/11/11 02:33:05;;;;;;;10.67;3.80;;;12.50;99.90;;;;;;4964552;28;20791;-72
2022/11/11 02:35:57;;;;;;;5.07;3.67;;;12.50;99.90;;;;;;4978132;28;20445;-72
2022/11/11 02:38:42;;;;;;;5.40;4.63;;;12.50;99.90;;;;;;4995225;28;20469;-72
2022/11/11 02:44:39;;;;;;;9.00;4.23;;;12.50;99.90;;;;;;4994184;28;20439;-72
2022/11/11 02:47:25;;;;;;;6.43;3.80;;;12.50;99.90;;;;;;4977815;28;20483;-72
2022/11/11 02:50:10;;;;;;;6.43;4.43;;;12.50;99.90;;;;;;4977790;28;20456;-72
2022/11/11 02:52:54;;;;;;;5.43;3.70;;;12.50;99.90;;;;;;4994970;28;20411;-72
2022/11/11 02:55:38;;;;;;;5.13;3.90;;;12.50;99.90;;;;;;4977706;28;20426;-72
2022/11/11 02:58:23;;;;;;;6.77;3.57;;;12.50;99.90;;;;;;4977818;28;20433;-72
2022/11/11 03:01:10;;;;;;;5.20;4.07;;;12.50;99.90;;;;;;4981139;28;20425;-72
2022/11/11 03:03:56;;;;;;;6.33;4.07;;;12.50;99.90;;;;;;4995129;28;20441;-72
2022/11/11 03:06:43;;;;;;;4.30;3.53;;;12.40;99.90;;;;;;4977592;28;20429;-73
2022/11/11 03:09:28;;;;;;;8.53;4.00;;;12.40;99.90;;;;;;4977909;28;20528;-72
2022/11/11 03:12:15;;;;;;;6.03;3.80;;;12.40;99.90;;;;;;4977454;28;20443;-72
2022/11/11 03:14:59;;;;;;;5.23;3.90;;;12.40;99.90;;;;;;4979936;28;20404;-72
2022/11/11 03:17:46;;;;;;;6.80;4.73;;;12.40;99.90;;;;;;4977521;28;20436;-72
2022/11/11 03:23:56;;;;;;;5.60;3.80;;;12.40;99.90;;;;;;4896836;29;20447;-71
2022/11/11 03:26:40;;;;;;;4.70;3.50;;;12.40;99.90;;;;;;4896959;29;20422;-72
2022/11/11 03:29:25;;;;;;;4.60;3.47;;;12.40;99.90;;;;;;4896638;29;20448;-72
2022/11/11 03:32:10;;;;;;;4.77;3.47;;;12.40;99.90;;;;;;4897002;29;20457;-72
2022/11/11 03:34:57;;;;;;;4.30;3.90;;;12.40;99.90;;;;;;4896706;29;20489;-73
2022/11/11 03:40:46;;;;;;;6.27;3.57;;;12.40;99.90;;;;;;4934377;29;20891;-72
2022/11/11 03:43:35;;;;;;;8.43;4.00;;;12.40;99.90;;;;;;4934308;29;20418;-72
2022/11/11 03:46:20;;;;;;;4.93;3.53;;;12.30;99.90;;;;;;4920885;29;20475;-73
2022/11/11 03:49:07;;;;;;;5.43;3.90;;;12.30;99.90;;;;;;4934041;29;20499;-72
2022/11/11 03:51:52;;;;;;;5.40;3.50;;;12.30;99.90;;;;;;4934406;29;20409;-72
2022/11/11 03:54:38;;;;;;;5.30;3.70;;;12.30;99.90;;;;;;4993184;28;20437;-72
2022/11/11 03:57:31;;;;;;;5.27;3.17;;;12.30;99.90;;;;;;5015749;28;20762;-72
2022/11/11 04:00:24;;;;;;;5.57;3.10;;;12.30;99.90;;;;;;5015374;28;20449;-72
2022/11/11 04:12:30;;;;;;;8.30;3.47;;;12.30;99.90;;;;;;5015731;28;20826;-72
2022/11/11 04:21:41;;;;;;;6.60;3.27;;;12.30;99.90;;;;;;5015488;28;20455;-72
2022/11/11 04:27:30;;;;;;;5.33;3.63;;;12.20;99.90;;;;;;5015515;28;20479;-72
2022/11/11 04:30:17;;;;;;;4.70;3.30;;;12.20;99.90;;;;;;5015407;28;20503;-72
2022/11/11 04:33:04;;;;;;;5.97;3.90;;;12.30;99.90;;;;;;5032648;28;20392;-72
2022/11/11 04:35:49;;;;;;;6.23;4.10;;;12.20;99.90;;;;;;5015469;28;20424;-72
2022/11/11 04:41:37;;;;;;;6.00;3.17;;;12.20;99.90;;;;;;5032901;28;20438;-72
2022/11/11 04:47:30;;;;;;;3.97;3.53;;;12.20;99.90;;;;;;5015330;28;20410;-72
2022/11/11 04:50:14;;;;;;;6.23;3.93;;;12.20;99.90;;;;;;5032648;28;20428;-72
2022/11/11 04:53:05;;;;;;;4.80;3.30;;;12.20;99.90;;;;;;5001529;28;20412;-72
2022/11/11 04:59:19;;;;;;;7.40;3.97;;;12.20;99.90;;;;;;5015252;28;20474;-72
2022/11/11 05:05:06;;;;;;;4.80;3.90;;;12.20;99.90;;;;;;5018349;28;20454;-71
2022/11/11 05:11:01;;;;;;;5.03;3.30;;;12.20;99.90;;;;;;5016547;28;20414;-74
2022/11/11 05:23:05;;;;;;;5.77;3.50;;;12.10;99.90;;;;;;5016223;28;20581;-72
2022/11/11 05:25:51;;;;;;;5.40;3.40;;;12.10;99.90;;;;;;4998418;28;20453;-72
2022/11/11 05:28:36;;;;;;;3.30;3.00;;;12.10;99.90;;;;;;5016129;28;20408;-71
2022/11/11 05:31:23;;;;;;;6.17;2.87;;;12.10;99.90;;;;;;4999068;28;20784;-72
2022/11/11 05:34:08;;;;;;;3.63;2.87;;;12.10;99.90;;;;;;5016275;28;20405;-72
2022/11/11 05:36:52;;;;;;;5.10;3.33;;;12.10;99.90;;;;;;4998916;28;20444;-72
2022/11/11 05:39:39;;;;;;;5.80;3.47;;;12.10;99.90;;;;;;4998268;28;20463;-73
2022/11/11 05:42:24;;;;;;;5.13;2.83;;;12.10;99.90;;;;;;5016150;28;20404;-72
2022/11/11 05:45:11;;;;;;;4.60;3.30;;;12.10;99.90;;;;;;5000997;28;20465;-72
2022/11/11 05:48:00;;;;;;;4.60;3.10;;;12.10;99.90;;;;;;5016344;28;20488;-72
2022/11/11 05:50:47;;;;;;;3.40;3.10;;;12.10;99.90;;;;;;5016022;28;20458;-72
2022/11/11 05:53:34;;;;;;;7.33;3.30;;;12.10;99.90;;;;;;5016071;28;20447;-72
2022/11/11 05:56:32;;;;;;;4.90;3.00;;;12.10;99.90;;;;;;5000411;28;20437;-73
2022/11/11 05:59:17;;;;;;;7.63;3.30;;;12.10;99.90;;;;;;5015448;28;20449;-71
2022/11/11 06:02:04;;;;;;;4.60;3.10;;;12.00;99.90;;;;;;5003605;28;20414;-71
2022/11/11 06:04:49;;;;;;;4.20;3.20;;;12.10;99.90;;;;;;4996107;28;20479;-71
2022/11/11 06:07:42;;;;;;;3.80;3.03;;;12.10;99.90;;;;;;4965410;28;20424;-71
2022/11/11 06:10:31;;;;;;;5.47;3.33;;;12.00;99.90;;;;;;4995469;28;20443;-71
2022/11/11 06:13:19;;;;;;;3.80;3.37;;;12.00;99.90;;;;;;4994274;28;20400;-73
2022/11/11 06:16:06;;;;;;;6.10;2.87;;;12.00;99.90;;;;;;4994041;28;20504;-73
2022/11/11 06:18:51;;;;;;;3.57;2.73;;;12.00;99.90;;;;;;4996521;28;20444;-73
2022/11/11 06:21:55;;;;;;;4.60;3.53;;;12.00;99.90;;;;;;4999805;28;20430;-72
2022/11/11 06:24:40;;;;;;;4.07;2.60;;;12.00;99.90;;;;;;4997662;28;20469;-75
2022/11/11 06:27:25;;;;;;;5.60;4.10;;;12.00;99.90;;;;;;5009506;28;20946;-76
2022/11/11 06:30:09;;;;;;;6.93;3.80;;;12.00;99.90;;;;;;4994509;28;20486;-78
2022/11/11 06:32:54;;;;;;;6.67;4.23;;;12.00;99.90;;;;;;5011424;28;20528;-79
2022/11/11 06:35:42;;;;;;;4.10;3.60;;;12.00;99.90;;;;;;5000563;28;20463;-78
2022/11/11 06:38:31;;;;;;;7.10;3.50;;;12.00;99.90;;;;;;4998635;28;20816;-75
2022/11/11 06:41:16;;;;;;;4.73;3.17;;;12.00;99.90;;;;;;5013799;28;20442;-75
2022/11/11 06:44:00;;;;;;;5.93;3.57;;;12.00;99.90;;;;;;4997494;28;20441;-77
2022/11/11 06:46:47;;;;;;;4.80;3.67;;;12.00;99.90;;;;;;4996823;28;20464;-74
2022/11/11 06:49:36;;;;;;;3.50;2.70;;;12.00;99.90;;;;;;4994445;28;20545;-75
2022/11/11 06:52:24;;;;;;;7.87;3.30;;;12.00;99.90;;;;;;5003750;28;20996;-75
2022/11/11 06:55:15;;;;;;;6.50;3.23;;;12.00;99.90;;;;;;4982056;28;20448;-75
2022/11/11 06:58:10;;;;;;;5.33;3.03;;;11.90;99.90;;;;;;4991579;28;20526;-76
2022/11/11 07:00:57;;;;;;;5.90;2.97;;;11.90;99.90;;;;;;4984366;28;20912;-75
2022/11/11 07:03:41;;;;;;;8.53;4.57;;;11.90;99.90;;;;;;4984890;28;20420;-77
2022/11/11 07:06:28;;;;;;;4.47;3.47;;;11.90;99.90;;;;;;4996081;28;20464;-77
2022/11/11 07:09:15;;;;;;;4.70;3.40;;;11.90;99.90;;;;;;4995826;28;20448;-76
2022/11/11 07:12:02;;;;;;;6.33;3.67;;;11.90;99.90;;;;;;5013437;28;20492;-77
2022/11/11 07:14:47;;;;;;;4.13;3.33;;;11.90;99.90;;;;;;4998791;28;20442;-77
2022/11/11 07:17:31;;;;;;;6.23;3.73;;;11.90;99.90;;;;;;4988729;28;20500;-77
2022/11/11 07:20:21;;;;;;;9.60;3.87;;;11.90;99.90;;;;;;4981921;28;20449;-77
2022/11/11 07:23:08;;;;;;;7.97;3.93;;;11.90;99.90;;;;;;5003041;28;20471;-77
2022/11/11 07:26:02;;;;;;;6.27;3.80;;;11.90;99.90;;;;;;5013203;28;20986;-77
2022/11/11 07:28:49;;;;;;;5.83;3.93;;;11.90;99.90;;;;;;5012560;28;20441;-77
2022/11/11 07:31:36;;;;;;;5.83;3.33;;;11.80;99.90;;;;;;5005758;28;20421;-79
2022/11/11 07:34:23;;;;;;;3.93;3.00;;;11.80;99.90;;;;;;4988957;28;20428;-77
2022/11/11 07:37:07;;;;;;;4.33;3.37;;;11.90;99.90;;;;;;4995812;28;20435;-77
2022/11/11 07:40:00;;;;;;;5.63;3.60;;;11.80;99.90;;;;;;4982766;28;20445;-78
2022/11/11 07:42:45;;;;;;;8.30;3.57;;;11.90;99.90;;;;;;5012547;28;20449;-74
2022/11/11 07:45:32;;;;;;;5.20;3.47;;;11.80;99.90;;;;;;5014661;28;20445;-78
2022/11/11 07:48:16;;;;;;;5.60;3.30;;;11.80;99.90;;;;;;5017455;28;20411;-78
2022/11/11 07:51:06;;;;;;;4.00;3.10;;;11.80;99.90;;;;;;5013827;28;20837;-76
2022/11/11 07:53:52;;;;;;;4.40;3.40;;;11.80;99.90;;;;;;4974970;28;20436;-77
2022/11/11 07:56:37;;;;;;;4.70;3.50;;;11.90;99.90;;;;;;4991789;28;20463;-79
2022/11/11 07:59:22;;;;;;;6.90;3.90;;;11.80;99.90;;;;;;5001474;28;20453;-77
2022/11/11 08:02:14;;;;;;;4.73;3.37;;;11.80;99.90;;;;;;5004818;28;20458;-79
2022/11/11 08:04:58;;;;;;;4.43;3.23;;;11.80;99.90;;;;;;4995038;28;20458;-78
2022/11/11 08:07:43;;;;;;;4.67;3.60;;;11.80;99.90;;;;;;4983202;28;20468;-81
2022/11/11 08:10:27;;;;;;;6.63;3.70;;;11.80;99.90;;;;;;4980236;28;20461;-77
2022/11/11 08:16:22;;;;;;;4.43;3.10;;;11.80;99.90;;;;;;5012928;28;20857;-77
2022/11/11 08:19:07;;;;;;;6.33;3.67;;;11.80;99.90;;;;;;4981178;28;20847;-77
2022/11/11 08:21:51;;;;;;;5.40;3.30;;;11.80;99.90;;;;;;4995415;28;20452;-78
2022/11/11 08:24:41;;;;;;;6.30;3.67;;;11.80;99.90;;;;;;5002745;28;20467;-76
2022/11/11 08:27:26;;;;;;;4.73;3.87;;;11.90;99.90;;;;;;4998239;28;20490;-79
2022/11/11 08:30:11;;;;;;;4.30;3.70;;;11.90;99.90;;;;;;5005601;28;20460;-79
2022/11/11 08:33:05;;;;;;;5.47;3.50;;;11.80;99.90;;;;;;4981924;28;20417;-75
2022/11/11 08:35:53;;;;;;;5.70;3.20;;;11.80;99.90;;;;;;4995873;28;20519;-77
2022/11/11 08:38:38;;;;;;;4.43;3.90;;;11.90;99.90;;;;;;4995726;28;20433;-76
2022/11/11 08:41:23;;;;;;;4.57;3.90;;;11.80;99.90;;;;;;4998608;28;20484;-77
2022/11/11 08:44:08;;;;;;;5.80;4.07;;;11.80;99.90;;;;;;4999498;28;20465;-77
2022/11/11 08:46:53;;;;;;;4.40;3.83;;;11.90;99.90;;;;;;5002123;28;20415;-77
2022/11/11 08:49:37;;;;;;;4.63;3.57;;;11.80;99.90;;;;;;4985309;28;20445;-77
2022/11/11 08:52:22;;;;;;;6.63;4.03;;;11.90;99.90;;;;;;4999556;28;20915;-77
2022/11/11 08:55:06;;;;;;;6.13;4.47;;;11.90;99.90;;;;;;4999568;28;20444;-77
2022/11/11 08:58:00;;;;;;;5.00;4.50;;;11.80;99.90;;;;;;4985278;28;20492;-75
2022/11/11 09:00:47;;;;;;;4.97;3.67;;;11.80;99.90;;;;;;5016791;28;20398;-74
2022/11/11 09:03:34;;;;;;;4.80;3.83;;;11.80;99.90;;;;;;4999304;28;20778;-74
2022/11/11 09:06:19;;;;;;;6.30;3.73;;;11.90;99.90;;;;;;4994937;28;20607;-75
2022/11/11 09:09:06;;;;;;;4.33;3.63;;;11.80;99.90;;;;;;4996169;28;20461;-75
2022/11/11 09:11:50;;;;;;;5.43;3.47;;;11.90;99.90;;;;;;5014390;28;20424;-75
2022/11/11 09:14:38;;;;;;;10.10;4.00;;;11.80;99.90;;;;;;5029180;28;20995;-75
2022/11/11 09:17:22;;;;;;;5.27;4.03;;;11.90;99.90;;;;;;4999673;28;20424;-75
2022/11/11 09:20:08;;;;;;;8.50;4.00;;;11.90;99.90;;;;;;4998933;28;20535;-75
2022/11/11 09:22:55;;;;;;;6.23;3.93;;;11.90;99.90;;;;;;4983418;28;20461;-75
2022/11/11 09:25:42;;;;;;;4.50;3.53;;;11.90;99.90;;;;;;4981727;28;20478;-75
2022/11/11 09:28:27;;;;;;;3.93;3.53;;;11.90;99.90;;;;;;4996749;28;20439;-75
2022/11/11 09:31:11;;;;;;;5.40;3.43;;;11.90;99.90;;;;;;4999362;28;20439;-75
2022/11/11 09:33:55;;;;;;;5.73;3.80;;;11.90;99.90;;;;;;5013458;28;20539;-75
2022/11/11 09:36:46;;;;;;;5.80;3.33;;;11.90;99.90;;;;;;4992971;28;20520;-75
2022/11/11 09:39:32;;;;;;;5.07;3.63;;;11.90;99.90;;;;;;4979473;28;20544;-75
2022/11/11 09:42:35;;;;;;;4.37;2.97;;;11.90;99.90;;;;;;5009691;28;20432;-75
2022/11/11 09:45:29;;;;;;;4.80;3.53;;;11.90;99.90;;;;;;5010445;28;20553;-75
2022/11/11 09:48:38;;;;;;;6.23;3.20;;;11.90;99.90;;;;;;4979086;28;20415;-75
2022/11/11 09:51:33;;;;;;;5.03;3.43;;;12.00;99.90;;;;;;4993016;28;20408;-75
2022/11/11 09:54:31;;;;;;;5.07;3.30;;;12.00;99.90;;;;;;5009519;28;20495;-75
2022/11/11 09:58:08;;;;;;;5.70;3.50;;;12.00;99.90;;;;;;4997637;28;20468;-75
2022/11/11 10:01:13;;;;;;;4.27;2.87;;;12.00;99.90;;;;;;4996429;28;20449;-75
2022/11/11 10:04:42;;;;;;;6.13;3.00;;;12.00;99.90;;;;;;4939686;29;21106;-75
2022/11/11 10:08:06;;;;;;;4.67;3.40;;;12.00;99.90;;;;;;4980242;28;20432;-74
2022/11/11 10:10:54;;;;;;;4.23;3.00;;;12.00;99.90;;;;;;4997501;28;20818;-73
2022/11/11 10:13:39;;;;;;;5.00;3.30;;;12.10;99.90;;;;;;5008741;28;20954;-76
2022/11/11 10:16:35;;;;;;;5.37;3.43;;;12.10;99.90;;;;;;4984579;28;20452;-76
2022/11/11 10:19:38;;;;;;;3.87;3.43;;;12.10;99.90;;;;;;5000518;28;20949;-75
2022/11/11 10:22:34;;;;;;;4.30;3.47;;;12.10;99.90;;;;;;4998510;28;20477;-76
2022/11/11 10:25:29;;;;;;;10.10;3.20;;;12.10;99.90;;;;;;5026885;28;20890;-76
2022/11/11 10:28:19;;;;;;;5.47;3.60;;;12.10;99.90;;;;;;5022232;28;20443;-75
2022/11/11 10:31:12;;;;;;;5.20;3.10;;;12.20;99.90;;;;;;5015597;28;20503;-75
2022/11/11 10:34:01;;;;;;;3.37;3.03;;;12.20;99.90;;;;;;4992885;28;20432;-74
2022/11/11 10:36:53;;;;;;;5.23;2.97;;;12.20;99.90;;;;;;5016349;28;20429;-73
2022/11/11 10:40:16;;;;;;;7.00;3.50;;;12.20;99.90;;;;;;4975923;28;20997;-73
2022/11/11 10:43:25;;;;;;;4.33;3.20;;;12.20;99.90;;;;;;5000973;28;20445;-72
2022/11/11 10:46:17;;;;;;;4.50;3.27;;;12.20;99.90;;;;;;4986397;28;20451;-72
2022/11/11 10:49:04;;;;;;;5.53;2.97;;;12.20;99.90;;;;;;5006059;28;20452;-75
2022/11/11 10:52:00;;;;;;;3.33;2.50;;;12.20;99.90;;;;;;5009972;28;20841;-74
2022/11/11 10:55:07;;;;;;;4.60;3.20;;;12.20;99.90;;;;;;4982599;28;20445;-75
2022/11/11 10:58:16;;;;;;;4.33;2.80;;;12.20;99.90;;;;;;4999496;28;20535;-75
2022/11/11 11:01:05;;;;;;;6.17;3.37;;;12.30;99.90;;;;;;5023227;28;20449;-74
2022/11/11 11:03:56;;;;;;;5.90;3.27;;;12.20;99.90;;;;;;5003723;28;20963;-74
2022/11/11 11:06:43;;;;;;;3.50;2.87;;;12.30;99.90;;;;;;5012658;28;20493;-75
2022/11/11 11:10:04;;;;;;;4.07;3.03;;;12.30;99.90;;;;;;5011076;28;20486;-75
2022/11/11 11:13:05;;;;;;;4.43;2.87;;;12.30;99.90;;;;;;4995388;28;20775;-73
2022/11/11 11:16:01;;;;;;;3.80;3.10;;;12.30;99.90;;;;;;4979629;28;21013;-72
2022/11/11 11:19:20;;;;;;;6.20;3.30;;;12.30;99.90;;;;;;4994244;28;20454;-75
2022/11/11 11:22:07;;;;;;;5.80;3.30;;;12.30;99.90;;;;;;4993185;28;20931;-75
2022/11/11 11:25:09;;;;;;;4.97;3.10;;;12.30;99.90;;;;;;4998280;28;20574;-76
2022/11/11 11:28:04;;;;;;;5.70;3.17;;;12.30;99.90;;;;;;5011910;28;20422;-76
2022/11/11 11:31:06;;;;;;;3.93;2.43;;;12.30;99.90;;;;;;5017794;28;21013;-75
2022/11/11 11:33:56;;;;;;;4.70;3.30;;;12.40;99.90;;;;;;5012335;28;20439;-76
2022/11/11 11:36:41;;;;;;;5.63;3.20;;;12.40;99.90;;;;;;4993892;28;20467;-76
2022/11/11 11:39:37;;;;;;;3.33;2.73;;;12.40;99.90;;;;;;5012210;28;20956;-76
2022/11/11 11:42:35;;;;;;;3.80;2.57;;;12.40;99.90;;;;;;4997153;28;20426;-76
2022/11/11 11:45:32;;;;;;;3.60;2.70;;;12.40;99.90;;;;;;4975958;28;20455;-76
2022/11/11 11:48:47;;;;;;;4.50;3.10;;;12.40;99.90;;;;;;4994524;28;20442;-76
2022/11/11 11:51:56;;;;;;;4.13;2.63;;;12.40;99.90;;;;;;4977708;28;21032;-76
2022/11/11 11:54:44;;;;;;;3.60;2.73;;;12.40;99.90;;;;;;4990870;28;20398;-77
2022/11/11 11:57:43;;;;;;;4.47;2.63;;;12.40;99.90;;;;;;5008738;28;20480;-76
2022/11/11 12:00:37;;;;;;;4.63;2.60;;;12.40;99.90;;;;;;4989518;28;20449;-76
2022/11/11 12:03:50;;;;;;;5.90;2.90;;;12.50;99.90;;;;;;4996951;28;20507;-76
2022/11/11 12:07:07;;;;;;;4.10;2.47;;;12.50;99.90;;;;;;4993145;28;20492;-77
2022/11/11 12:10:15;;;;;;;6.03;2.80;;;12.50;99.90;;;;;;5010964;28;20456;-77
2022/11/11 12:13:13;;;;;;;4.87;3.10;;;12.50;99.90;;;;;;4994139;28;20437;-77
2022/11/11 12:16:07;;;;;;;5.70;3.17;;;12.50;99.90;;;;;;4995427;28;20978;-76
2022/11/11 12:19:10;;;;;;;6.97;2.63;;;12.50;99.90;;;;;;4991991;28;20491;-77
2022/11/11 12:22:05;;;;;;;3.20;2.30;;;12.50;99.90;;;;;;4997565;28;20540;-78
2022/11/11 12:25:28;;;;;;;3.90;2.70;;;12.50;99.90;;;;;;4993800;28;20560;-74
2022/11/11 12:28:42;;;;;;;4.80;2.87;;;12.50;99.90;;;;;;5013658;28;20502;-74
2022/11/11 12:31:39;;;;;;;3.67;2.53;;;12.50;99.90;;;;;;4980901;28;20544;-73
2022/11/11 12:34:51;;;;;;;6.17;2.90;;;12.60;99.90;;;;;;4991958;28;20802;-73
2022/11/11 12:38:01;;;;;;;5.40;2.80;;;12.60;99.90;;;;;;4991172;28;20476;-73
2022/11/11 12:40:59;;;;;;;3.90;2.67;;;12.60;99.90;;;;;;4983062;28;20423;-74
2022/11/11 12:44:12;;;;;;;2.80;2.50;;;12.60;99.90;;;;;;4992086;28;20498;-73
2022/11/11 12:47:26;;;;;;;3.77;2.90;;;12.60;99.90;;;;;;4994232;28;20453;-73
2022/11/11 12:50:40;;;;;;;4.50;3.00;;;12.60;99.90;;;;;;5020017;28;20458;-73
2022/11/11 12:53:31;;;;;;;6.30;2.73;;;12.60;99.90;;;;;;4993057;28;20875;-73
2022/11/11 12:56:44;;;;;;;3.70;2.63;;;12.60;99.90;;;;;;4973026;28;20524;-74
2022/11/11 13:00:06;;;;;;;5.23;2.47;;;12.60;99.90;;;;;;4989508;28;20447;-73
2022/11/11 13:03:12;;;;;;;4.30;2.43;;;12.60;99.90;;;;;;5017268;28;20489;-73
2022/11/11 13:06:12;;;;;;;4.10;2.60;;;12.60;99.90;;;;;;4994255;28;20468;-74
2022/11/11 13:09:02;;;;;;;5.67;2.60;;;12.60;99.90;;;;;;5009939;28;20458;-73
2022/11/11 13:12:08;;;;;;;4.67;3.03;;;12.70;99.90;;;;;;5009366;28;20602;-74
2022/11/11 13:15:15;;;;;;;4.13;2.80;;;12.70;99.90;;;;;;5024064;28;20446;-73
2022/11/11 13:18:09;;;;;;;3.80;2.33;;;12.70;99.90;;;;;;4972321;28;20423;-74
2022/11/11 13:21:08;;;;;;;4.60;2.57;;;12.70;99.90;;;;;;4992892;28;20444;-73
2022/11/11 13:23:53;;;;;;;4.40;2.30;;;12.70;99.90;;;;;;4997039;28;20431;-74
2022/11/11 13:27:24;;;;;;;4.43;2.57;;;12.70;99.90;;;;;;5001730;28;20485;-74
2022/11/11 13:30:37;;;;;;;3.33;2.43;;;12.70;99.90;;;;;;4995564;28;21228;-73
2022/11/11 13:33:25;;;;;;;5.00;2.10;;;12.70;99.90;;;;;;5022024;28;20416;-73
2022/11/11 13:36:14;;;;;;;2.50;2.10;;;12.70;99.90;;;;;;5007693;28;20673;-73
2022/11/11 13:39:05;;;;;;;3.27;2.20;;;12.70;99.90;;;;;;5013029;28;20434;-74
2022/11/11 13:41:52;;;;;;;2.93;2.37;;;12.70;99.90;;;;;;5012160;28;20537;-73
2022/11/11 13:45:00;;;;;;;4.10;2.67;;;12.80;99.90;;;;;;4995611;28;20522;-73
2022/11/11 13:47:49;;;;;;;5.17;2.40;;;12.80;99.90;;;;;;4962220;28;20901;-73
2022/11/11 13:50:38;;;;;;;4.90;2.60;;;12.80;99.90;;;;;;5005404;28;20529;-73
2022/11/11 13:53:34;;;;;;;2.70;2.07;;;12.80;99.90;;;;;;4992068;28;20497;-73
2022/11/11 13:56:36;;;;;;;2.80;2.50;;;12.80;99.90;;;;;;5008840;28;20458;-74
2022/11/11 13:59:33;;;;;;;6.00;2.60;;;12.80;99.90;;;;;;5017995;28;20452;-73
2022/11/11 14:02:20;;;;;;;5.00;2.57;;;12.80;99.90;;;;;;4995348;28;20429;-73
2022/11/11 14:05:05;;;;;;;3.17;2.63;;;12.80;99.90;;;;;;4994627;28;20470;-73
2022/11/11 14:07:56;;;;;;;3.93;2.40;;;12.80;99.90;;;;;;4999802;28;20456;-74
2022/11/11 14:10:50;;;;;;;3.40;2.23;;;12.80;99.90;;;;;;4999560;28;20456;-74
2022/11/11 14:13:40;;;;;;;3.93;2.60;;;12.90;99.90;;;;;;4978848;28;20466;-73
2022/11/11 14:16:45;;;;;;;4.20;2.60;;;12.90;99.90;;;;;;4999445;28;20828;-74
2022/11/11 14:19:32;;;;;;;4.20;2.20;;;12.80;99.90;;;;;;4983854;28;20877;-74
2022/11/11 14:22:32;;;;;;;2.70;2.10;;;12.90;99.90;;;;;;5024542;28;20789;-73
2022/11/11 14:25:27;;;;;;;3.87;2.13;;;12.90;99.90;;;;;;5007098;28;20547;-75
2022/11/11 14:28:33;;;;;;;4.53;2.40;;;12.90;99.90;;;;;;5013512;28;21058;-72
2022/11/11 14:31:17;;;;;;;2.17;1.83;;;12.90;99.90;;;;;;4994989;28;20781;-73
2022/11/11 14:34:31;;;;;;;4.13;2.57;;;12.90;99.90;;;;;;4998482;28;20451;-74
2022/11/11 14:37:47;;;;;;;3.07;2.03;;;12.90;99.90;;;;;;5010685;28;20421;-73
2022/11/11 14:40:34;;;;;;;3.27;2.30;;;12.90;99.90;;;;;;5007613;28;20448;-73
2022/11/11 14:43:31;;;;;;;3.80;2.57;;;12.90;99.90;;;;;;5017219;28;20494;-74
2022/11/11 14:46:15;;;;;;;5.77;2.20;;;12.90;99.90;;;;;;4993364;28;20451;-74
2022/11/11 14:49:03;;;;;;;5.20;2.93;;;12.90;99.90;;;;;;5001982;28;20475;-74
2022/11/11 14:52:06;;;;;;;2.40;2.10;;;12.90;99.90;;;;;;5008152;28;20432;-74
2022/11/11 14:55:02;;;;;;;3.67;2.43;;;12.90;99.90;;;;;;4999498;28;20483;-74
2022/11/11 14:58:07;;;;;;;2.57;2.20;;;12.90;99.90;;;;;;4998053;28;20792;-74
2022/11/11 15:01:17;;;;;;;4.63;2.23;;;12.90;99.90;;;;;;5016650;28;20834;-72
2022/11/11 15:04:03;;;;;;;3.43;2.13;;;12.90;99.90;;;;;;5009506;28;20486;-74
2022/11/11 15:06:58;;;;;;;2.93;1.90;;;12.90;99.90;;;;;;5016418;28;20930;-74
2022/11/11 15:09:55;;;;;;;4.40;2.30;;;12.90;99.90;;;;;;5026980;28;20449;-73
2022/11/11 15:12:47;;;;;;;3.10;2.60;;;12.90;99.90;;;;;;5000594;28;20421;-75
2022/11/11 15:15:50;;;;;;;2.73;2.10;;;12.90;99.90;;;;;;5014812;28;20430;-74
2022/11/11 15:19:09;;;;;;;3.27;2.07;;;12.90;99.90;;;;;;4992746;28;20435;-74
2022/11/11 15:22:22;;;;;;;3.00;2.43;;;12.90;99.90;;;;;;4979952;28;20952;-74
2022/11/11 15:25:43;;;;;;;2.40;1.80;;;12.90;99.90;;;;;;4973977;28;20885;-74
2022/11/11 15:29:04;;;;;;;3.77;2.20;;;12.90;99.90;;;;;;4992292;28;20426;-74
2022/11/11 15:32:04;;;;;;;4.10;2.20;;;12.90;99.90;;;;;;4999974;28;20413;-74
2022/11/11 15:35:28;;;;;;;2.63;2.43;;;12.90;99.90;;;;;;5012989;28;20953;-74
2022/11/11 15:38:19;;;;;;;4.00;2.30;;;12.90;99.90;;;;;;5012252;28;20943;-74
2022/11/11 15:41:21;;;;;;;3.10;2.07;;;12.90;99.90;;;;;;4994821;28;20859;-74
2022/11/11 15:44:21;;;;;;;2.07;1.80;;;12.90;99.90;;;;;;5031224;28;20421;-74
2022/11/11 15:47:06;;;;;;;2.73;1.90;;;12.90;99.90;;;;;;4977810;28;20800;-74
2022/11/11 15:49:53;;;;;;;3.50;2.27;;;12.90;99.90;;;;;;5005573;28;20441;-74
2022/11/11 15:52:40;;;;;;;2.50;1.87;;;12.90;99.90;;;;;;5031286;28;20457;-74
2022/11/11 15:55:29;;;;;;;2.40;2.10;;;12.90;99.90;;;;;;5022662;28;20469;-74
2022/11/11 15:58:26;;;;;;;2.23;1.80;;;12.90;99.90;;;;;;4994625;28;20923;-74
2022/11/11 16:01:12;;;;;;;5.77;2.40;;;12.90;99.90;;;;;;5012062;28;20778;-74
2022/11/11 16:03:59;;;;;;;2.53;1.90;;;12.90;99.90;;;;;;5031802;28;20397;-74
2022/11/11 16:06:45;;;;;;;1.83;1.60;;;12.90;99.90;;;;;;4987064;28;20466;-76
2022/11/11 16:09:30;;;;;;;4.00;2.53;;;12.80;99.90;;;;;;5020085;28;20537;-74